createdAt,value
2022-10-29T00:04:54.446Z,10.58
2022-10-29T00:09:58.131Z,10.58
2022-10-29T00:15:01.967Z,10.58
2022-10-29T00:25:14.850Z,10.51
2022-10-29T00:30:18.165Z,10.48
2022-10-29T00:35:23.019Z,10.45
2022-10-29T00:40:26.477Z,10.43
2022-10-29T00:45:29.714Z,10.47
2022-10-29T00:50:32.964Z,10.52
2022-10-29T00:55:36.284Z,10.58
2022-10-29T01:00:39.611Z,10.61
2022-10-29T01:05:44.631Z,10.61
2022-10-29T01:11:00.250Z,10.66
2022-10-29T01:16:25.266Z,10.70
2022-10-29T01:22:01.121Z,10.73
2022-10-29T01:27:24.568Z,10.76
2022-10-29T01:32:50.545Z,10.83
2022-10-29T01:38:02.890Z,10.85
2022-10-29T01:43:15.845Z,10.86
2022-10-29T01:48:33.528Z,10.84
2022-10-29T01:53:37.762Z,10.82
2022-10-29T01:58:45.047Z,10.81
2022-10-29T02:04:03.827Z,10.79
2022-10-29T02:09:22.638Z,10.77
2022-10-29T02:14:30.496Z,10.77
2022-10-29T02:19:34.909Z,10.77
2022-10-29T02:24:38.285Z,10.71
2022-10-29T02:29:41.892Z,10.67
2022-10-29T02:34:45.186Z,10.65
2022-10-29T02:39:48.489Z,10.60
2022-10-29T02:44:51.694Z,10.54
2022-10-29T02:49:55.007Z,10.52
2022-10-29T02:54:58.286Z,10.50
2022-10-29T03:00:01.561Z,10.49
2022-10-29T03:05:05.704Z,10.49
2022-10-29T03:10:09.291Z,10.49
2022-10-29T03:15:12.499Z,10.48
2022-10-29T03:20:15.749Z,10.46
2022-10-29T03:25:19.028Z,10.46
2022-10-29T03:30:23.324Z,10.44
2022-10-29T03:35:26.676Z,10.38
2022-10-29T03:40:30.007Z,10.30
2022-10-29T03:45:33.165Z,10.21
2022-10-29T03:50:36.368Z,10.10
2022-10-29T03:55:39.634Z,10.01
2022-10-29T04:00:42.921Z,9.91
2022-10-29T04:05:46.196Z,9.83
2022-10-29T04:10:50.725Z,9.75
2022-10-29T04:15:55.415Z,9.68
2022-10-29T04:23:10.859Z,9.56
2022-10-29T04:31:50.002Z,9.51
2022-10-29T04:36:54.030Z,9.38
2022-10-29T04:41:57.281Z,9.27
2022-10-29T04:47:01.149Z,9.11
2022-10-29T04:52:04.628Z,9.02
2022-10-29T04:57:07.929Z,9.06
2022-10-29T05:02:14.954Z,8.93
2022-10-29T05:07:22.701Z,8.80
2022-10-29T05:12:25.963Z,8.91
2022-10-29T05:17:29.912Z,8.84
2022-10-29T05:22:33.658Z,8.85
2022-10-29T05:27:36.942Z,8.83
2022-10-29T05:32:42.005Z,8.78
2022-10-29T05:37:57.268Z,8.71
2022-10-29T05:43:01.034Z,8.64
2022-10-29T05:48:05.170Z,8.75
2022-10-29T05:53:11.855Z,8.82
2022-10-29T05:58:15.257Z,8.90
2022-10-29T06:03:23.777Z,8.98
2022-10-29T06:08:27.172Z,9.01
2022-10-29T06:13:31.115Z,8.96
2022-10-29T06:18:34.389Z,8.96
2022-10-29T06:23:37.912Z,9.09
2022-10-29T06:28:41.285Z,9.33
2022-10-29T06:33:44.582Z,9.63
2022-10-29T06:38:47.831Z,9.91
2022-10-29T06:43:51.221Z,10.19
2022-10-29T06:48:54.536Z,10.43
2022-10-29T06:53:57.821Z,10.65
2022-10-29T06:59:01.079Z,10.88
2022-10-29T07:04:04.465Z,11.12
2022-10-29T07:09:07.808Z,11.41
2022-10-29T07:14:14.824Z,11.81
2022-10-29T07:19:18.795Z,12.27
2022-10-29T07:24:22.201Z,12.78
2022-10-29T07:29:30.340Z,13.27
2022-10-29T07:34:35.100Z,13.67
2022-10-29T07:39:38.806Z,13.99
2022-10-29T07:44:45.119Z,14.28
2022-10-29T07:49:50.809Z,14.55
2022-10-29T07:54:54.358Z,14.83
2022-10-29T08:00:06.920Z,15.07
2022-10-29T08:05:21.063Z,15.32
2022-10-29T08:10:50.265Z,15.64
2022-10-29T08:16:04.120Z,15.90
2022-10-29T08:21:11.711Z,16.09
2022-10-29T08:26:15.349Z,16.26
2022-10-29T08:31:29.126Z,16.45
2022-10-29T08:36:35.493Z,16.72
2022-10-29T08:41:59.984Z,17.02
2022-10-29T08:47:07.752Z,17.31
2022-10-29T08:52:24.951Z,17.54
2022-10-29T08:57:42.333Z,17.68
2022-10-29T09:03:00.592Z,17.75
2022-10-29T09:09:10.031Z,17.80
2022-10-29T09:14:36.805Z,18.03
2022-10-29T09:19:45.666Z,18.28
2022-10-29T09:25:08.931Z,18.61
2022-10-29T09:30:21.245Z,18.89
2022-10-29T09:35:53.934Z,19.06
2022-10-29T09:41:01.250Z,19.25
2022-10-29T09:46:10.078Z,19.46
2022-10-29T09:51:34.829Z,19.69
2022-10-29T09:56:42.967Z,19.84
2022-10-29T10:01:47.899Z,19.93
2022-10-29T10:07:11.186Z,19.97
2022-10-29T10:12:14.475Z,19.88
2022-10-29T10:17:17.688Z,19.84
2022-10-29T10:22:24.551Z,19.78
2022-10-29T10:27:31.772Z,19.75
2022-10-29T10:32:35.094Z,19.84
2022-10-29T10:37:38.563Z,19.95
2022-10-29T10:42:47.324Z,20.16
2022-10-29T10:47:58.591Z,20.23
2022-10-29T10:53:05.851Z,20.33
2022-10-29T10:58:20.500Z,20.44
2022-10-29T11:03:39.494Z,20.57
2022-10-29T11:08:53.627Z,20.76
2022-10-29T11:14:10.299Z,21.00
2022-10-29T11:19:36.751Z,21.13
2022-10-29T11:24:50.903Z,21.20
2022-10-29T11:29:58.363Z,21.18
2022-10-29T11:35:09.609Z,21.15
2022-10-29T11:40:24.880Z,21.00
2022-10-29T11:46:09.308Z,20.94
2022-10-29T11:51:29.606Z,20.90
2022-10-29T11:57:16.597Z,20.96
2022-10-29T12:03:03.527Z,21.08
2022-10-29T12:08:30.861Z,21.16
2022-10-29T12:14:04.879Z,21.26
2022-10-29T12:19:29.008Z,21.52
2022-10-29T12:25:10.522Z,21.57
2022-10-29T12:30:18.668Z,21.55
2022-10-29T12:35:40.336Z,21.51
2022-10-29T12:40:45.880Z,21.37
2022-10-29T12:46:19.189Z,21.33
2022-10-29T12:51:38.125Z,21.44
2022-10-29T12:56:43.926Z,21.58
2022-10-29T13:02:10.395Z,21.66
2022-10-29T13:13:01.899Z,21.57
2022-10-29T13:18:20.596Z,21.37
2022-10-29T13:23:27.865Z,21.20
2022-10-29T13:28:38.498Z,21.12
2022-10-29T13:33:42.438Z,21.14
2022-10-29T13:39:05.999Z,21.28
2022-10-29T13:44:22.914Z,21.38
2022-10-29T13:49:42.901Z,21.23
2022-10-29T13:55:03.013Z,20.98
2022-10-29T14:00:11.329Z,20.85
2022-10-29T14:05:32.380Z,20.64
2022-10-29T14:10:42.020Z,20.49
2022-10-29T14:16:08.016Z,20.29
2022-10-29T14:21:30.189Z,20.16
2022-10-29T14:26:35.946Z,20.02
2022-10-29T14:31:39.617Z,19.85
2022-10-29T14:36:46.171Z,19.70
2022-10-29T14:41:50.891Z,19.58
2022-10-29T14:46:58.750Z,19.46
2022-10-29T14:52:08.451Z,19.33
2022-10-29T14:57:15.498Z,19.22
2022-10-29T15:02:37.554Z,19.07
2022-10-29T15:07:41.992Z,18.88
2022-10-29T15:12:45.924Z,18.68
2022-10-29T15:18:05.886Z,18.44
2022-10-29T15:23:25.461Z,18.15
2022-10-29T15:28:31.298Z,17.92
2022-10-29T15:33:54.160Z,17.65
2022-10-29T15:39:21.210Z,17.44
2022-10-29T15:44:36.607Z,17.20
2022-10-29T15:49:42.344Z,16.97
2022-10-29T15:54:49.811Z,16.75
2022-10-29T15:59:57.587Z,16.54
2022-10-29T16:05:04.597Z,16.37
2022-10-29T16:10:17.452Z,16.21
2022-10-29T16:20:31.694Z,16.00
2022-10-29T16:25:36.443Z,15.99
2022-10-29T16:30:42.287Z,16.01
2022-10-29T16:35:46.089Z,15.95
2022-10-29T16:40:51.728Z,15.91
2022-10-29T16:46:02.535Z,15.85
2022-10-29T16:51:26.594Z,15.80
2022-10-29T16:56:38.934Z,15.73
2022-10-29T17:01:56.844Z,15.70
2022-10-29T17:07:42.147Z,15.61
2022-10-29T17:13:09.456Z,15.51
2022-10-29T17:18:48.713Z,15.47
2022-10-29T17:24:13.727Z,15.51
2022-10-29T17:29:30.306Z,15.57
2022-10-29T17:34:48.118Z,15.59
2022-10-29T17:40:28.043Z,15.55
2022-10-29T17:45:38.551Z,15.49
2022-10-29T17:50:58.199Z,15.47
2022-10-29T17:56:08.660Z,15.55
2022-10-29T18:01:13.807Z,15.52
2022-10-29T18:06:17.470Z,15.46
2022-10-29T18:11:26.853Z,15.41
2022-10-29T18:16:44.066Z,15.40
2022-10-29T18:21:51.968Z,15.37
2022-10-29T18:27:18.864Z,15.37
2022-10-29T18:32:56.834Z,15.38
2022-10-29T18:38:30.817Z,15.38
2022-10-29T18:44:04.954Z,15.35
2022-10-29T18:55:19.255Z,15.31
2022-10-29T19:00:44.902Z,15.28
2022-10-29T19:06:13.455Z,15.32
2022-10-29T19:12:18.782Z,15.34
2022-10-29T19:18:10.738Z,15.33
2022-10-29T19:23:27.000Z,15.25
2022-10-29T19:28:42.695Z,15.24
2022-10-29T19:33:50.281Z,15.25
2022-10-29T19:38:58.775Z,15.23
2022-10-29T19:44:06.072Z,15.12
2022-10-29T19:49:37.027Z,15.11
2022-10-29T19:54:53.911Z,15.05
2022-10-29T20:00:36.372Z,14.91
2022-10-29T20:05:49.440Z,14.80
2022-10-29T20:11:31.481Z,14.76
2022-10-29T20:16:56.197Z,14.69
2022-10-29T20:22:31.755Z,14.64
2022-10-29T20:27:59.229Z,14.60
2022-10-29T20:39:42.569Z,14.56
2022-10-29T20:45:16.987Z,14.52
2022-10-29T20:51:00.089Z,14.51
2022-10-29T20:56:46.767Z,14.47
2022-10-29T21:07:39.096Z,14.40
2022-10-29T21:19:31.955Z,14.34
2022-10-29T21:24:54.216Z,14.31
2022-10-29T21:30:13.441Z,14.28
2022-10-29T21:35:54.205Z,14.20
2022-10-29T21:41:03.125Z,14.16
2022-10-29T21:46:11.162Z,14.14
2022-10-29T21:51:26.324Z,14.06
2022-10-29T21:56:49.785Z,13.93
2022-10-29T22:02:12.306Z,13.82
2022-10-29T22:07:46.300Z,13.79
2022-10-29T22:13:09.185Z,13.47
2022-10-29T22:18:35.672Z,13.20
2022-10-29T22:23:46.804Z,12.94
2022-10-29T22:28:50.852Z,12.70
2022-10-29T22:33:58.683Z,12.55
2022-10-29T22:39:10.495Z,12.44
2022-10-29T22:44:19.631Z,12.38
2022-10-29T22:49:23.072Z,12.35
2022-10-29T22:54:31.488Z,12.35
2022-10-29T22:59:35.975Z,12.34
2022-10-29T23:04:44.968Z,12.31
2022-10-29T23:09:51.116Z,12.21
2022-10-29T23:14:54.495Z,12.11
2022-10-29T23:20:05.299Z,12.04
2022-10-29T23:25:09.143Z,11.97
2022-10-29T23:30:15.049Z,11.86
2022-10-29T23:40:54.867Z,11.70
2022-10-29T23:46:04.116Z,11.61
2022-10-29T23:51:07.495Z,11.49
2022-10-29T23:56:18.447Z,11.45
